PWSweather.com
Personal Weather Stations
Station Observations
ABQWX
Albuquerque, NM 87110

Albuquerque, NM 87110

Lat: 35.1305, Lon: -106.58571

Elevation: 5210

Station Type: LaCrosse

http://www.albuquerqueweather.info/

High Low Average
Temperature 52.2°F11.2°F 30.8°F-0.7°F 41.6°F5.3°F
Dew Point 35.0°F1.7°F 17.5°F-8.1°F 24.9°F-3.9°F
Winds 8.3 mph NW13.4 mph NW Calm Calm 4.2 mph 6.8 mph
Wind Gusts 15.0 mph24.1 mph -- 7.1 mph11.4 mph
Humidity 76% 34% 53%
Pressure 30.26 in1024.70 in 29.94 in1013.90 in -
Precipitation 0.00 in0.00 in - -
Hour Temp Dew Point Humidity Winds Wind Gusts Pressure Precip Precip Rate Daily Precip Total
12:00 AM 40.0°F4.4°C 26.8°F-2.9°C 59% 3.6 mph N5.8 kmh N 5.8 mph9.3 kmh 29.95 in1014.2 mb 0.00 in0.0 mm 0.00 in/hr0.0 mm/hr 0.00 in0.0 mm
01:00 AM 38.9°F3.8°C 27.4°F-2.6°C 63% 3.1 mph NE5.0 kmh NE 6.3 mph10.1 kmh 29.94 in1013.9 mb 0.00 in0.0 mm 0.00 in/hr0.0 mm/hr 0.00 in0.0 mm
02:00 AM 37.5°F3.1°C 26.4°F-3.1°C 64% 0.9 mph NNW1.4 kmh NNW 2.7 mph4.3 kmh 29.95 in1014.2 mb 0.00 in0.0 mm 0.00 in/hr0.0 mm/hr 0.00 in0.0 mm
03:00 AM 34.2°F1.2°C 24.1°F-4.4°C 66% Calm Calm -- 29.94 in1013.9 mb 0.00 in0.0 mm 0.00 in/hr0.0 mm/hr 0.00 in0.0 mm
04:00 AM 32.4°F0.2°C 23.4°F-4.8°C 69% 0.5 mph W0.8 kmh W 0.9 mph1.4 kmh 29.94 in1013.9 mb 0.00 in0.0 mm 0.00 in/hr0.0 mm/hr 0.00 in0.0 mm
05:00 AM 30.8°F-0.7°C 22.9°F-5.1°C 72% 0.1 mph ESE0.2 kmh ESE 1.1 mph1.8 kmh 29.96 in1014.6 mb 0.00 in0.0 mm 0.00 in/hr0.0 mm/hr 0.00 in0.0 mm
06:00 AM 31.0°F-0.6°C 23.7°F-4.6°C 74% Calm Calm -- 29.98 in1015.2 mb 0.00 in0.0 mm 0.00 in/hr0.0 mm/hr 0.00 in0.0 mm
07:00 AM 31.7°F-0.2°C 25.0°F-3.9°C 76% Calm Calm -- 29.99 in1015.6 mb 0.00 in0.0 mm 0.00 in/hr0.0 mm/hr 0.00 in0.0 mm
08:00 AM 38.4°F3.6°C 30.5°F-0.8°C 73% 0.8 mph NW1.3 kmh NW 1.8 mph2.9 kmh 30.00 in1015.9 mb 0.00 in0.0 mm 0.00 in/hr0.0 mm/hr 0.00 in0.0 mm
09:00 AM 46.3°F7.9°C 33.2°F0.7°C 60% 2.3 mph NW3.7 kmh NW 4.7 mph7.6 kmh 30.02 in1016.6 mb 0.00 in0.0 mm 0.00 in/hr0.0 mm/hr 0.00 in0.0 mm
10:00 AM 52.1°F11.2°C 35.0°F1.7°C 52% 3.0 mph NW4.8 kmh NW 5.8 mph9.3 kmh 30.03 in1016.9 mb 0.00 in0.0 mm 0.00 in/hr0.0 mm/hr 0.00 in0.0 mm
11:00 AM 51.7°F10.9°C 31.6°F-0.2°C 46% 5.2 mph NW8.4 kmh NW 9.6 mph15.4 kmh 30.02 in1016.6 mb 0.00 in0.0 mm 0.00 in/hr0.0 mm/hr 0.00 in0.0 mm
12:00 PM 51.2°F10.7°C 29.4°F-1.4°C 43% 6.9 mph NW11.1 kmh NW 11.2 mph18.0 kmh 30.02 in1016.6 mb 0.00 in0.0 mm 0.00 in/hr0.0 mm/hr 0.00 in0.0 mm
01:00 PM 51.2°F10.7°C 27.6°F-2.4°C 40% 5.8 mph NW9.3 kmh NW 9.4 mph15.1 kmh 30.01 in1016.3 mb 0.00 in0.0 mm 0.00 in/hr0.0 mm/hr 0.00 in0.0 mm
02:00 PM 52.2°F11.2°C 27.4°F-2.6°C 38% 7.2 mph WNW11.6 kmh WNW 10.1 mph16.3 kmh 30.00 in1015.9 mb 0.00 in0.0 mm 0.00 in/hr0.0 mm/hr 0.00 in0.0 mm
04:00 PM 50.6°F10.3°C 23.9°F-4.5°C 35% 7.3 mph W11.7 kmh W 11.0 mph17.7 kmh 30.02 in1016.6 mb 0.00 in0.0 mm 0.00 in/hr0.0 mm/hr 0.00 in0.0 mm
05:00 PM 48.6°F9.2°C 21.5°F-5.8°C 34% 8.2 mph WNW13.2 kmh WNW 15.0 mph24.1 kmh 30.03 in1016.9 mb 0.00 in0.0 mm 0.00 in/hr0.0 mm/hr 0.00 in0.0 mm
06:00 PM 46.1°F7.8°C 20.6°F-6.3°C 36% 6.2 mph NW10.0 kmh NW 10.3 mph16.6 kmh 30.07 in1018.3 mb 0.00 in0.0 mm 0.00 in/hr0.0 mm/hr 0.00 in0.0 mm
07:00 PM 43.1°F6.2°C 19.8°F-6.8°C 39% 7.5 mph NNW12.1 kmh NNW 13.0 mph20.9 kmh 30.12 in1020.0 mb 0.00 in0.0 mm 0.00 in/hr0.0 mm/hr 0.00 in0.0 mm
08:00 PM 40.0°F4.4°C 18.2°F-7.7°C 41% 6.8 mph NNW10.9 kmh NNW 9.4 mph15.1 kmh 30.17 in1021.7 mb 0.00 in0.0 mm 0.00 in/hr0.0 mm/hr 0.00 in0.0 mm
09:00 PM 38.2°F3.4°C 17.6°F-8.0°C 43% 7.5 mph NW12.1 kmh NW 13.0 mph20.9 kmh 30.21 in1023.0 mb 0.00 in0.0 mm 0.00 in/hr0.0 mm/hr 0.00 in0.0 mm
10:00 PM 37.1°F2.8°C 18.7°F-7.4°C 47% 8.3 mph NW13.4 kmh NW 12.8 mph20.6 kmh 30.23 in1023.7 mb 0.00 in0.0 mm 0.00 in/hr0.0 mm/hr 0.00 in0.0 mm
11:00 PM 33.7°F0.9°C 17.5°F-8.1°C 51% 5.3 mph NNW8.5 kmh NNW 8.3 mph13.4 kmh 30.26 in1024.7 mb 0.00 in0.0 mm 0.00 in/hr0.0 mm/hr 0.00 in0.0 mm